Time;durP1;ratioP1;P1;durP2;ratioP2;P2;SDS_P1;SDS_P2;PMS_P1;PMS_P2;Temp;Humidity;BMP_temperature;BMP_pressure;BME280_temperature;BME280_humidity;BME280_pressure;Samples;Min_cycle;Max_cycle;Signal;HPM_P1;HPM_P2
2022/05/11 00:01:49;;;;;;;7.15;6.18;;;;;;;18.66;59.77;100566.34;4119494;28;20045;-58
2022/05/11 00:03:53;;;;;;;6.00;5.13;;;;;;;18.62;59.49;100571.69;4122505;28;20070;-58
2022/05/11 00:05:56;;;;;;;7.80;5.88;;;;;;;18.60;59.61;100565.56;4131237;28;20050;-58
2022/05/11 00:07:59;;;;;;;6.72;5.93;;;;;;;18.61;59.25;100564.69;4119124;28;20536;-58
2022/05/11 00:10:02;;;;;;;7.88;6.03;;;;;;;18.60;59.38;100562.94;4130506;28;20038;-58
2022/05/11 00:12:07;;;;;;;7.18;5.97;;;;;;;18.57;59.71;100561.22;4121255;28;20488;-58
2022/05/11 00:14:11;;;;;;;7.38;6.25;;;;;;;18.58;59.88;100556.84;4126477;28;20050;-57
2022/05/11 00:16:14;;;;;;;7.65;6.20;;;;;;;18.58;59.65;100562.97;4136584;28;20038;-58
2022/05/11 00:18:19;;;;;;;6.63;5.93;;;;;;;18.59;59.83;100559.44;4115832;28;20045;-58
2022/05/11 00:20:22;;;;;;;7.78;6.07;;;;;;;18.57;59.46;100555.97;4113955;28;20611;-58
2022/05/11 00:22:25;;;;;;;7.30;5.78;;;;;;;18.56;60.24;100561.25;4114885;28;20039;-57
2022/05/11 00:24:29;;;;;;;7.55;5.57;;;;;;;18.54;59.97;100555.16;4121921;28;20512;-58
2022/05/11 00:26:32;;;;;;;7.32;5.47;;;;;;;18.55;59.78;100556.91;4119458;28;20444;-57
2022/05/11 00:28:35;;;;;;;7.70;5.72;;;;;;;18.54;59.77;100549.88;4134147;28;20038;-58
2022/05/11 00:30:38;;;;;;;10.48;6.03;;;;;;;18.55;60.26;100555.13;4117073;28;20146;-58
2022/05/11 00:32:41;;;;;;;9.70;7.18;;;;;;;18.55;59.86;100554.28;4119484;28;20416;-57
2022/05/11 00:34:45;;;;;;;7.78;6.30;;;;;;;18.51;60.25;100549.94;4121930;28;20327;-57
2022/05/11 00:36:48;;;;;;;6.45;5.63;;;;;;;18.45;60.61;100551.78;4120791;28;20038;-58
2022/05/11 00:38:50;;;;;;;8.70;6.35;;;;;;;18.44;60.17;100543.91;4120602;28;20097;-58
2022/05/11 00:40:57;;;;;;;6.40;5.57;;;;;;;18.43;60.29;100547.44;4120007;28;20035;-58
2022/05/11 00:43:00;;;;;;;8.18;6.72;;;;;;;18.43;60.80;100550.09;4136785;28;20038;-58
2022/05/11 00:45:03;;;;;;;10.43;6.60;;;;;;;18.43;60.57;100553.56;4119944;28;20030;-58
2022/05/11 00:47:10;;;;;;;8.63;7.25;;;;;;;18.42;60.54;100540.44;4112002;28;20040;-58
2022/05/11 00:49:36;;;;;;;11.05;6.70;;;;;;;18.39;60.95;100546.63;4135894;28;20034;-58
2022/05/11 00:51:44;;;;;;;9.68;6.75;;;;;;;18.36;60.87;100549.31;4121043;28;20057;-58
2022/05/11 00:53:52;;;;;;;7.00;5.88;;;;;;;18.36;61.13;100545.81;4103898;28;20051;-58
2022/05/11 00:55:59;;;;;;;9.50;6.90;;;;;;;18.32;61.65;100544.97;4122654;28;20049;-58
2022/05/11 00:58:08;;;;;;;9.43;6.97;;;;;;;18.33;61.00;100541.47;4108060;28;20039;-58
2022/05/11 01:00:12;;;;;;;9.10;7.55;;;;;;;18.29;61.46;100535.38;4141526;28;20034;-58
2022/05/11 01:02:15;;;;;;;11.00;6.57;;;;;;;18.24;61.60;100536.38;4116651;28;20049;-58
2022/05/11 01:04:20;;;;;;;10.27;7.30;;;;;;;18.25;61.75;100538.06;4125746;28;20042;-58
2022/05/11 01:06:24;;;;;;;10.68;7.50;;;;;;;18.29;61.41;100534.50;4116104;28;20038;-58
2022/05/11 01:08:30;;;;;;;6.68;5.72;;;;;;;18.22;61.35;100531.09;4121443;28;20130;-58
2022/05/11 01:10:33;;;;;;;10.00;6.63;;;;;;;18.17;61.72;100525.06;4124552;28;20038;-58
2022/05/11 01:12:40;;;;;;;6.72;6.03;;;;;;;18.20;61.88;100526.78;4116749;28;20548;-58
2022/05/11 01:14:46;;;;;;;7.45;5.95;;;;;;;18.17;61.97;100529.47;4117955;28;20055;-58
2022/05/11 01:16:49;;;;;;;10.15;7.22;;;;;;;18.16;62.06;100528.56;4133840;28;20042;-58
2022/05/11 01:18:53;;;;;;;7.47;6.32;;;;;;;18.17;61.74;100525.06;4136476;28;20049;-58
2022/05/11 01:20:56;;;;;;;8.13;7.20;;;;;;;18.20;61.54;100524.16;4119116;28;20093;-58
2022/05/11 01:23:05;;;;;;;8.45;6.78;;;;;;;18.21;61.71;100523.22;4124448;28;20045;-58
2022/05/11 01:25:12;;;;;;;7.60;6.80;;;;;;;18.22;61.91;100530.22;4139974;28;20097;-58
2022/05/11 01:27:27;;;;;;;9.98;6.82;;;;;;;18.17;61.87;100529.47;4118228;28;20512;-58
2022/05/11 01:29:31;;;;;;;9.70;6.82;;;;;;;18.14;61.57;100523.34;4118800;28;20121;-57
2022/05/11 01:31:33;;;;;;;9.77;7.20;;;;;;;18.14;62.16;100520.69;4126441;28;20054;-58
2022/05/11 01:33:40;;;;;;;11.38;8.52;;;;;;;18.11;61.79;100515.50;4128449;28;20070;-58
2022/05/11 01:35:59;;;;;;;11.13;8.25;;;;;;;18.16;61.73;100515.41;4120569;28;20458;-58
2022/05/11 01:38:13;;;;;;;8.55;6.75;;;;;;;18.09;62.05;100521.66;4121853;28;20042;-58
2022/05/11 01:40:17;;;;;;;8.25;7.05;;;;;;;18.03;62.06;100524.41;4141318;28;20033;-58
2022/05/11 01:42:20;;;;;;;10.07;7.10;;;;;;;17.99;61.98;100518.34;4108190;28;20043;-58
2022/05/11 01:44:24;;;;;;;9.23;7.10;;;;;;;18.00;62.01;100521.81;4119006;28;20039;-58
2022/05/11 01:46:27;;;;;;;9.50;8.30;;;;;;;17.98;62.19;100519.22;4132259;28;20053;-58
2022/05/11 01:48:30;;;;;;;9.93;6.80;;;;;;;18.01;62.39;100521.78;4119500;28;20045;-58
2022/05/11 01:50:33;;;;;;;11.05;8.30;;;;;;;18.00;62.05;100521.81;4121678;28;20039;-58
2022/05/11 01:52:36;;;;;;;8.88;7.22;;;;;;;17.92;62.54;100519.31;4123885;28;20038;-58
2022/05/11 01:54:39;;;;;;;10.55;7.70;;;;;;;17.88;62.80;100528.09;4117107;28;20038;-58
2022/05/11 01:56:43;;;;;;;8.95;8.02;;;;;;;17.84;63.04;100514.13;4118397;28;20057;-58
2022/05/11 01:58:46;;;;;;;9.77;7.53;;;;;;;17.85;62.69;100512.38;4135012;28;20042;-58
2022/05/11 02:00:49;;;;;;;10.45;8.05;;;;;;;17.85;62.76;100507.13;4117959;28;20045;-58
2022/05/11 02:02:52;;;;;;;9.68;7.18;;;;;;;17.82;62.83;100512.44;4117973;28;20492;-58
2022/05/11 02:09:42;;;;;;;8.20;7.30;;;;;;;17.75;63.47;100509.00;4121505;28;20046;-58
2022/05/11 02:11:46;;;;;;;11.40;8.15;;;;;;;17.76;63.38;100513.38;4117303;28;20039;-58
2022/05/11 02:13:49;;;;;;;9.43;7.30;;;;;;;17.74;63.25;100512.50;4123745;28;20053;-58
2022/05/11 02:15:51;;;;;;;11.55;7.97;;;;;;;17.80;62.84;100512.44;4126650;28;20140;-58
2022/05/11 02:17:55;;;;;;;8.88;7.05;;;;;;;17.80;62.87;100507.19;4122860;28;20046;-58
2022/05/11 02:19:57;;;;;;;9.77;7.45;;;;;;;17.77;62.96;100509.84;4126424;28;20034;-58
2022/05/11 02:22:00;;;;;;;12.13;7.93;;;;;;;17.79;62.90;100503.66;4122566;28;20038;-58
2022/05/11 02:24:04;;;;;;;9.45;6.88;;;;;;;17.86;62.77;100506.19;4138089;28;20038;-58
2022/05/11 02:26:11;;;;;;;10.75;8.05;;;;;;;17.90;62.27;100505.31;4124367;28;20038;-58
2022/05/11 02:28:17;;;;;;;9.05;6.78;;;;;;;17.88;62.46;100505.28;4120199;28;20095;-58
2022/05/11 02:30:23;;;;;;;12.20;7.78;;;;;;;17.91;62.54;100512.31;4116357;28;20048;-58
2022/05/11 02:32:27;;;;;;;12.02;7.65;;;;;;;17.90;62.57;100507.94;4119474;28;20042;-58
2022/05/11 02:36:50;;;;;;;9.90;7.93;;;;;;;17.91;62.73;100507.03;4140635;28;20065;-58
2022/05/11 02:38:53;;;;;;;9.43;7.15;;;;;;;17.86;62.69;100507.09;4122843;28;20034;-58
2022/05/11 02:40:57;;;;;;;11.02;7.63;;;;;;;17.85;62.78;100512.38;4128573;28;20034;-58
2022/05/11 02:43:01;;;;;;;11.07;8.40;;;;;;;17.85;62.80;100513.22;4135853;28;20046;-57
2022/05/11 02:45:07;;;;;;;10.88;8.20;;;;;;;17.86;62.63;100516.72;4112356;28;20066;-58
2022/05/11 02:47:11;;;;;;;8.88;7.97;;;;;;;17.88;62.48;100507.94;4116311;28;20062;-58
2022/05/11 02:49:13;;;;;;;9.00;8.10;;;;;;;17.90;62.39;100513.19;4128628;28;20038;-58
2022/05/11 02:51:16;;;;;;;9.07;6.43;;;;;;;17.87;62.65;100514.09;4121658;28;20411;-58
2022/05/11 02:53:20;;;;;;;10.07;7.50;;;;;;;17.85;62.14;100507.97;4115370;28;20069;-58
2022/05/11 02:55:24;;;;;;;8.20;7.18;;;;;;;17.81;62.21;100506.28;4115513;28;20035;-58
2022/05/11 02:57:28;;;;;;;10.15;7.63;;;;;;;17.79;62.80;100508.94;4116816;28;20452;-57
2022/05/11 02:59:31;;;;;;;9.13;7.40;;;;;;;17.85;62.29;100513.22;4123767;28;20048;-58
2022/05/11 03:01:35;;;;;;;10.65;7.82;;;;;;;17.85;62.64;100507.13;4123922;28;20043;-58
2022/05/11 03:03:38;;;;;;;;;;;;;;;17.66;63.11;100504.75;4124194;28;20042;-58
2022/05/11 03:05:41;;;;;;;8.77;7.88;;;;;;;17.76;62.75;100502.88;4118553;28;19929;-58
2022/05/11 03:07:44;;;;;;;9.10;8.13;;;;;;;17.79;62.86;100492.28;4119036;28;20451;-58
2022/05/11 03:09:47;;;;;;;7.95;7.15;;;;;;;17.76;63.02;100502.88;4131611;28;20290;-58
2022/05/11 03:11:50;;;;;;;9.30;7.22;;;;;;;17.73;62.69;100502.91;4126139;28;20484;-58
2022/05/11 03:13:53;;;;;;;7.97;7.07;;;;;;;17.70;63.05;100498.56;4116570;28;20049;-58
2022/05/11 03:16:02;;;;;;;8.70;7.80;;;;;;;17.69;62.90;100501.22;4119027;28;20031;-58
2022/05/11 03:18:07;;;;;;;9.45;8.40;;;;;;;17.66;63.02;100496.84;4130251;28;20039;-58
2022/05/11 03:20:10;;;;;;;10.50;8.48;;;;;;;17.61;63.22;100507.44;4104110;28;20263;-58
2022/05/11 03:22:13;;;;;;;8.07;7.15;;;;;;;17.62;63.20;100503.94;4141486;28;20491;-58
2022/05/11 03:24:17;;;;;;;13.82;7.78;;;;;;;17.68;62.94;100495.06;4122518;28;20100;-58
2022/05/11 03:26:20;;;;;;;9.90;7.78;;;;;;;17.70;62.93;100501.19;4122449;28;20046;-58
2022/05/11 03:28:23;;;;;;;7.82;7.03;;;;;;;17.66;62.85;100502.13;4120208;28;20381;-58
2022/05/11 03:30:26;;;;;;;9.20;7.75;;;;;;;17.65;63.06;100497.75;4118472;28;20045;-58
2022/05/11 03:34:50;;;;;;;10.40;8.38;;;;;;;17.62;62.81;100506.56;4133955;28;20042;-58
2022/05/11 03:36:53;;;;;;;9.55;8.25;;;;;;;17.56;62.99;100492.63;4124472;28;20038;-58
2022/05/11 03:38:56;;;;;;;10.40;8.10;;;;;;;17.54;63.17;100497.03;4128802;28;20125;-58
2022/05/11 03:40:59;;;;;;;7.97;6.88;;;;;;;17.57;63.03;100502.25;4120251;28;20049;-58
2022/05/11 03:43:02;;;;;;;11.38;7.75;;;;;;;17.68;62.58;100497.69;4120440;28;20030;-58
2022/05/11 03:45:11;;;;;;;8.10;6.65;;;;;;;17.57;62.26;100492.59;4120695;28;20129;-58
2022/05/11 03:47:13;;;;;;;9.27;7.57;;;;;;;17.51;62.74;100491.81;4121803;28;20074;-58
2022/05/11 03:49:16;;;;;;;10.48;7.97;;;;;;;17.51;63.10;100486.56;4116656;28;20517;-58
2022/05/11 03:51:20;;;;;;;9.57;7.93;;;;;;;17.55;62.55;100483.88;4135412;28;20120;-58
2022/05/11 03:53:23;;;;;;;9.10;8.18;;;;;;;17.53;62.72;100490.03;4123310;28;20428;-58
2022/05/11 03:55:27;;;;;;;9.23;7.10;;;;;;;17.54;62.77;100486.53;4129434;28;20057;-58
2022/05/11 03:57:32;;;;;;;9.80;7.65;;;;;;;17.45;62.83;100477.88;4131268;28;20044;-58
2022/05/11 03:59:34;;;;;;;10.80;7.47;;;;;;;17.51;62.96;100486.56;4119226;28;20042;-58
2022/05/11 04:01:38;;;;;;;10.27;8.05;;;;;;;17.48;62.72;100481.34;4119366;28;20035;-58
2022/05/11 04:03:42;;;;;;;9.30;7.60;;;;;;;17.50;62.92;100490.09;4125374;28;20038;-58
2022/05/11 04:05:45;;;;;;;8.77;7.88;;;;;;;17.60;62.28;100482.03;4131446;28;20050;-58
2022/05/11 04:07:50;;;;;;;9.77;7.68;;;;;;;17.55;62.25;100489.13;4124372;28;20425;-58
2022/05/11 04:09:52;;;;;;;9.02;8.13;;;;;;;17.51;62.60;100483.91;4113472;28;20516;-58
2022/05/11 04:11:55;;;;;;;9.57;7.18;;;;;;;17.42;62.97;100485.81;4136608;28;20044;-57
2022/05/11 04:13:59;;;;;;;8.50;7.40;;;;;;;17.51;62.62;100490.06;4125611;28;20044;-58
2022/05/11 04:16:02;;;;;;;7.40;6.55;;;;;;;17.39;62.78;100490.22;4115189;28;20130;-58
2022/05/11 04:18:06;;;;;;;8.13;7.30;;;;;;;17.40;62.99;100487.56;4122330;28;20093;-58
2022/05/11 04:20:12;;;;;;;8.10;7.18;;;;;;;17.38;63.08;100491.13;4135281;28;20045;-58
2022/05/11 04:22:15;;;;;;;11.05;7.18;;;;;;;17.42;62.41;100484.91;4136879;28;20047;-57
2022/05/11 04:24:22;;;;;;;8.60;7.32;;;;;;;17.41;62.69;100489.31;4137155;28;20081;-58
2022/05/11 04:26:24;;;;;;;10.57;7.85;;;;;;;17.48;62.62;100486.59;4113398;28;20042;-58
2022/05/11 04:28:28;;;;;;;9.20;7.13;;;;;;;17.49;62.28;100490.97;4117336;28;20433;-58
2022/05/11 04:30:31;;;;;;;8.10;7.30;;;;;;;17.47;62.59;100490.13;4121563;28;20034;-57
2022/05/11 04:32:34;;;;;;;8.98;7.88;;;;;;;17.54;62.33;100490.03;4140322;28;20527;-58
2022/05/11 04:34:39;;;;;;;7.90;7.10;;;;;;;17.45;62.64;100498.91;4145897;28;20046;-58
2022/05/11 04:36:42;;;;;;;12.70;7.63;;;;;;;17.42;62.89;100496.31;4142202;28;20040;-58
2022/05/11 04:38:45;;;;;;;8.68;7.15;;;;;;;17.45;62.77;100493.66;4155243;28;20037;-58
2022/05/11 04:40:49;;;;;;;8.07;6.40;;;;;;;17.45;62.77;100490.16;4158042;28;20048;-58
2022/05/11 04:42:52;;;;;;;7.78;6.72;;;;;;;17.43;62.83;100490.19;4156620;28;20041;-58
2022/05/11 04:44:55;;;;;;;11.38;7.40;;;;;;;17.45;62.95;100490.16;4148485;28;20033;-58
2022/05/11 04:46:58;;;;;;;8.13;7.32;;;;;;;17.54;62.52;100491.78;4158060;28;20073;-58
2022/05/11 04:51:18;;;;;;;7.90;6.05;;;;;;;17.47;63.06;100490.13;4150136;28;20141;-58
2022/05/11 04:53:21;;;;;;;10.45;7.15;;;;;;;17.45;63.11;100500.66;4149792;28;20046;-58
2022/05/11 04:55:24;;;;;;;10.40;7.65;;;;;;;17.49;63.01;100488.34;4149548;28;20077;-58
2022/05/11 04:57:28;;;;;;;10.07;6.60;;;;;;;17.58;62.54;100493.47;4149364;28;20088;-58
2022/05/11 04:59:32;;;;;;;8.50;6.93;;;;;;;17.42;62.91;100495.44;4132560;28;20057;-58
2022/05/11 05:01:35;;;;;;;8.85;7.32;;;;;;;17.48;62.96;100491.84;4132307;28;20113;-58
2022/05/11 05:03:38;;;;;;;9.05;7.75;;;;;;;17.52;62.82;100493.56;4150135;28;20050;-58
2022/05/11 05:05:43;;;;;;;8.85;7.95;;;;;;;17.63;62.61;100486.41;4132581;28;20242;-58
2022/05/11 05:07:45;;;;;;;9.73;7.45;;;;;;;17.67;62.49;100492.47;4150111;28;20073;-58
2022/05/11 05:09:48;;;;;;;11.55;7.95;;;;;;;17.55;62.87;100488.25;4149584;28;20041;-58
2022/05/11 05:11:52;;;;;;;12.13;7.85;;;;;;;17.59;63.01;100487.31;4132334;28;20060;-57
2022/05/11 05:13:57;;;;;;;8.75;7.80;;;;;;;17.51;63.24;100491.81;4149965;28;20121;-57
2022/05/11 05:15:59;;;;;;;12.02;8.60;;;;;;;17.44;63.11;100496.28;4149855;28;20121;-57
2022/05/11 05:18:03;;;;;;;7.82;6.68;;;;;;;17.58;62.95;100494.34;4149160;28;20037;-58
2022/05/11 05:20:08;;;;;;;9.40;7.25;;;;;;;17.54;63.30;100502.31;4149300;28;20061;-58
2022/05/11 05:22:11;;;;;;;;;;;;;;;17.42;63.63;100498.06;4150125;28;20042;-57
2022/05/11 05:24:14;;;;;;;8.50;6.88;;;;;;;17.44;63.55;100497.16;4148629;28;20399;-57
2022/05/11 05:26:17;;;;;;;9.10;6.72;;;;;;;17.54;63.42;100497.91;4149425;28;20034;-57
2022/05/11 05:33:05;;;;;;;8.27;7.15;;;;;;;17.76;64.03;100503.72;4149605;28;20088;-58
2022/05/11 05:35:10;;;;;;;9.82;6.72;;;;;;;17.85;63.25;100497.47;4149131;28;20064;-58
2022/05/11 05:37:14;;;;;;;7.75;6.07;;;;;;;17.78;63.25;100496.69;4132155;28;20042;-57
2022/05/11 05:39:17;;;;;;;10.05;8.15;;;;;;;17.79;63.56;100493.16;4132094;28;20042;-58
2022/05/11 05:41:20;;;;;;;13.25;6.65;;;;;;;17.96;63.14;100489.44;4149120;28;20085;-58
2022/05/11 05:43:24;;;;;;;11.63;7.18;;;;;;;18.11;62.56;100494.44;4149405;28;20073;-57
2022/05/11 05:45:27;;;;;;;8.70;6.82;;;;;;;18.14;62.48;100483.88;4131391;28;20467;-58
2022/05/11 05:47:31;;;;;;;10.98;7.13;;;;;;;18.27;61.91;100488.94;4149596;28;20132;-57
2022/05/11 05:49:34;;;;;;;7.60;6.30;;;;;;;18.30;61.90;100496.78;4149189;28;20033;-58
2022/05/11 05:51:39;;;;;;;10.15;6.88;;;;;;;18.37;62.16;100490.50;4149082;28;20121;-58
2022/05/11 05:53:42;;;;;;;7.43;5.78;;;;;;;18.33;62.40;100490.59;4148159;28;20124;-58
2022/05/11 05:55:45;;;;;;;9.88;5.63;;;;;;;18.37;62.09;100495.78;4131726;28;20081;-57
2022/05/11 05:57:48;;;;;;;6.50;5.35;;;;;;;18.47;62.07;100491.19;4149247;28;20487;-58
2022/05/11 05:59:51;;;;;;;9.60;6.15;;;;;;;18.54;61.49;100494.59;4148850;28;20406;-58
2022/05/11 06:01:54;;;;;;;9.05;5.43;;;;;;;18.56;61.63;100496.31;4131759;28;20038;-58
2022/05/11 06:03:58;;;;;;;7.97;6.25;;;;;;;18.76;61.67;100493.31;4148858;28;20049;-58
2022/05/11 06:06:01;;;;;;;11.27;6.20;;;;;;;18.80;61.36;100494.97;4131776;28;20082;-58
2022/05/11 06:08:07;;;;;;;7.38;5.88;;;;;;;18.77;61.10;100489.75;4149161;28;20416;-58
2022/05/11 06:10:10;;;;;;;8.10;6.47;;;;;;;18.91;60.90;100493.94;4148426;28;20045;-58
2022/05/11 06:12:16;;;;;;;7.78;6.18;;;;;;;18.89;61.01;100493.09;4149090;28;20034;-57
2022/05/11 06:14:19;;;;;;;7.70;6.13;;;;;;;18.95;60.82;100503.50;4154660;28;20495;-58
2022/05/11 06:16:21;;;;;;;8.93;6.38;;;;;;;19.09;60.30;100492.72;4157358;28;20125;-58
2022/05/11 06:18:26;;;;;;;7.55;5.60;;;;;;;19.09;60.32;100497.97;4165253;28;20522;-58
2022/05/11 06:20:31;;;;;;;7.18;5.57;;;;;;;19.20;60.14;100493.31;4164960;28;20065;-58
2022/05/11 06:22:34;;;;;;;8.25;5.50;;;;;;;19.25;60.27;100498.53;4163870;28;20103;-58
2022/05/11 06:24:36;;;;;;;7.60;6.10;;;;;;;19.33;59.23;100492.19;4139243;28;20064;-58
2022/05/11 06:26:41;;;;;;;7.75;5.78;;;;;;;19.41;59.38;100501.72;4148998;28;20042;-57
2022/05/11 06:29:05;;;;;;;7.50;5.33;;;;;;;19.42;59.54;100493.75;4148523;28;20309;-58
2022/05/11 06:31:08;;;;;;;6.82;5.00;;;;;;;19.45;59.70;100496.34;4148156;28;20293;-58
2022/05/11 06:33:17;;;;;;;7.65;5.25;;;;;;;19.58;58.88;100488.13;4148614;28;20064;-58
2022/05/11 06:35:19;;;;;;;9.18;5.35;;;;;;;19.63;58.43;100502.09;4148792;28;20038;-58
2022/05/11 06:37:25;;;;;;;6.18;5.22;;;;;;;19.70;58.45;100493.13;4148671;28;20108;-58
2022/05/11 06:39:28;;;;;;;11.32;5.47;;;;;;;19.66;58.95;100491.47;4148038;28;20041;-57
2022/05/11 06:41:31;;;;;;;8.85;5.20;;;;;;;19.70;58.35;100493.13;4148276;28;20044;-58
2022/05/11 06:43:34;;;;;;;7.40;4.80;;;;;;;19.65;58.15;100489.72;4148396;28;20088;-57
2022/05/11 06:45:36;;;;;;;11.13;5.28;;;;;;;19.71;58.16;100490.47;4147956;28;20169;-58
2022/05/11 06:47:39;;;;;;;11.68;5.70;;;;;;;19.84;58.19;100490.19;4131068;28;20575;-57
2022/05/11 06:49:42;;;;;;;7.15;5.45;;;;;;;19.92;57.94;100487.38;4147206;28;20495;-57
2022/05/11 06:51:45;;;;;;;7.35;4.72;;;;;;;20.03;57.48;100493.25;4148255;28;20045;-57
2022/05/11 07:00:50;;;;;;;5.65;4.60;;;;;;;20.20;56.72;100482.28;4144463;28;20125;-57
2022/05/11 07:02:53;;;;;;;12.23;5.43;;;;;;;20.43;56.57;100481.69;4148154;28;20042;-57
2022/05/11 07:04:56;;;;;;;6.38;5.22;;;;;;;20.34;56.60;100479.28;4146227;28;20431;-57
2022/05/11 07:07:00;;;;;;;6.90;5.00;;;;;;;20.32;56.38;100481.09;4146788;28;20044;-58
2022/05/11 07:09:04;;;;;;;6.23;4.73;;;;;;;20.38;56.23;100480.94;4147056;28;20042;-58
2022/05/11 07:13:27;;;;;;;11.35;6.20;;;;;;;20.54;56.31;100482.25;4147742;28;20045;-58
2022/05/11 07:15:30;;;;;;;7.00;4.57;;;;;;;20.63;55.58;100480.28;4147518;28;20398;-58
2022/05/11 07:17:35;;;;;;;10.10;5.25;;;;;;;20.75;55.76;100477.38;4147438;28;20084;-58
2022/05/11 07:19:41;;;;;;;7.05;4.43;;;;;;;20.85;55.38;100480.59;4131077;28;20142;-61
2022/05/11 07:21:44;;;;;;;6.57;4.20;;;;;;;20.89;55.91;100472.53;4147946;28;20049;-61
2022/05/11 07:23:47;;;;;;;6.13;4.53;;;;;;;21.00;55.66;100481.97;4145885;28;20050;-60
2022/05/11 07:25:51;;;;;;;11.52;4.63;;;;;;;21.07;54.63;100486.13;4147832;28;20410;-61
2022/05/11 07:27:55;;;;;;;7.70;4.47;;;;;;;21.08;55.19;100482.59;4125174;28;20050;-60
2022/05/11 07:29:58;;;;;;;10.77;4.68;;;;;;;21.12;55.03;100478.94;4146380;28;20491;-62
2022/05/11 07:32:00;;;;;;;6.60;4.55;;;;;;;21.14;54.79;100471.81;4142870;28;20518;-61
2022/05/11 07:34:03;;;;;;;10.02;5.10;;;;;;;21.33;54.42;100476.56;4148643;28;20045;-60
2022/05/11 07:36:06;;;;;;;5.72;4.60;;;;;;;21.36;53.72;100471.19;4136274;28;20439;-60
2022/05/11 07:38:10;;;;;;;7.05;4.82;;;;;;;21.33;54.11;100472.13;4145256;28;20120;-60
2022/05/11 07:40:14;;;;;;;8.75;4.55;;;;;;;21.30;54.35;100472.22;4155484;28;20514;-60
2022/05/11 07:42:24;;;;;;;11.63;5.20;;;;;;;21.42;53.89;100468.34;4146538;28;20038;-59
2022/05/11 07:44:28;;;;;;;8.57;4.28;;;;;;;21.46;54.10;100472.63;4147188;28;20045;-58
2022/05/11 07:46:34;;;;;;;6.45;5.25;;;;;;;21.63;53.58;100469.50;4147372;28;20514;-58
2022/05/11 07:48:43;;;;;;;8.23;4.85;;;;;;;21.68;52.83;100477.28;4147206;28;20376;-58
2022/05/11 07:50:46;;;;;;;8.80;5.50;;;;;;;21.74;52.83;100466.50;4147142;28;20096;-58
2022/05/11 07:52:49;;;;;;;7.38;4.03;;;;;;;21.77;53.18;100466.41;4146394;28;20030;-59
2022/05/11 07:54:52;;;;;;;6.00;4.15;;;;;;;21.86;52.53;100471.44;4144663;28;20041;-62
2022/05/11 08:01:37;;;;;;;7.57;4.35;;;;;;;22.12;51.66;100469.69;4146580;28;20046;-60
2022/05/11 15:03:10;;;;;;;5.55;2.08;;;;;;;28.66;26.49;100082.28;4171190;28;20046;-58
2022/05/11 15:05:15;;;;;;;4.25;1.77;;;;;;;28.92;25.91;100087.69;4161118;28;20149;-58
2022/05/11 15:07:18;;;;;;;8.82;2.75;;;;;;;29.10;25.16;100079.34;4164110;28;20500;-59
2022/05/11 15:09:22;;;;;;;5.28;2.00;;;;;;;29.30;24.29;100086.88;4162855;28;20128;-59
2022/05/11 15:13:46;;;;;;;5.35;2.00;;;;;;;29.62;24.32;100077.53;4172940;28;20480;-59
2022/05/11 15:15:52;;;;;;;6.28;2.10;;;;;;;29.72;24.75;100082.09;4159001;28;20045;-58
2022/05/11 15:17:57;;;;;;;6.10;1.90;;;;;;;29.69;24.75;100078.81;4167594;28;20557;-58
2022/05/11 15:20:02;;;;;;;4.65;2.20;;;;;;;29.75;25.20;100081.03;4165165;28;20037;-59
2022/05/11 15:22:05;;;;;;;4.57;1.90;;;;;;;29.82;25.07;100076.97;4167269;28;20498;-59
2022/05/11 15:24:08;;;;;;;5.82;2.10;;;;;;;29.77;25.08;100079.09;4164122;28;20061;-59
2022/05/11 15:26:12;;;;;;;4.88;1.98;;;;;;;29.87;25.18;100072.13;4165411;28;20120;-59
2022/05/11 15:28:15;;;;;;;5.78;2.13;;;;;;;30.06;25.38;100070.78;4176994;28;20045;-59
2022/05/11 15:30:20;;;;;;;4.28;2.20;;;;;;;30.13;25.14;100064.00;4191127;28;20037;-59
2022/05/11 15:32:27;;;;;;;2.80;2.10;;;;;;;30.19;25.41;100063.53;4173168;28;20441;-59
2022/05/11 15:34:32;;;;;;;6.60;1.88;;;;;;;30.17;25.53;100065.50;4170471;28;20078;-59
2022/05/11 15:36:35;;;;;;;5.05;2.15;;;;;;;30.32;25.83;100068.84;4162147;28;20402;-59
2022/05/11 15:38:43;;;;;;;7.88;2.30;;;;;;;30.34;26.06;100072.25;4163764;28;20061;-59
2022/05/11 15:40:48;;;;;;;2.08;1.83;;;;;;;30.34;25.23;100074.09;4161068;28;20076;-58
2022/05/11 15:42:51;;;;;;;5.93;1.90;;;;;;;30.22;25.44;100068.66;4162204;28;20048;-59
2022/05/11 15:45:16;;;;;;;4.53;1.70;;;;;;;30.23;25.28;100065.03;4163026;28;20117;-58
2022/05/11 15:47:19;;;;;;;4.57;2.40;;;;;;;30.28;25.88;100067.34;4164593;28;20486;-58
2022/05/11 15:49:25;;;;;;;7.20;2.10;;;;;;;30.41;25.80;100069.97;4183809;28;20040;-59
2022/05/11 15:51:28;;;;;;;6.13;2.38;;;;;;;30.39;25.10;100062.03;4167157;28;20036;-59
2022/05/11 15:53:34;;;;;;;6.50;2.30;;;;;;;30.26;24.80;100062.09;4166398;28;20434;-59
2022/05/11 15:55:37;;;;;;;5.35;1.75;;;;;;;30.25;24.83;100056.84;4174490;28;20513;-59
2022/05/11 15:57:40;;;;;;;2.33;1.73;;;;;;;30.32;25.07;100066.16;4177559;28;20041;-58
2022/05/11 15:59:44;;;;;;;3.80;1.75;;;;;;;30.36;25.24;100064.97;4172254;28;20034;-59
2022/05/11 16:01:47;;;;;;;9.75;2.55;;;;;;;30.28;24.51;100062.84;4163736;28;20037;-59
2022/05/11 16:03:50;;;;;;;3.92;2.15;;;;;;;30.19;25.38;100058.16;4158794;28;20503;-59
2022/05/11 16:05:54;;;;;;;6.22;2.38;;;;;;;30.33;25.96;100062.50;4172339;28;20407;-59
2022/05/11 16:07:57;;;;;;;4.60;1.95;;;;;;;30.34;24.89;100049.94;4167781;28;20048;-59
2022/05/11 16:10:01;;;;;;;8.23;3.00;;;;;;;30.19;25.14;100047.44;4161798;28;20057;-59
2022/05/11 16:12:04;;;;;;;4.78;1.90;;;;;;;30.24;25.83;100049.78;4162619;28;20302;-59
2022/05/11 16:14:10;;;;;;;5.38;2.05;;;;;;;30.12;25.69;100048.88;4160023;28;20042;-59
2022/05/11 16:16:12;;;;;;;6.18;2.15;;;;;;;30.11;25.81;100045.34;4154338;28;20095;-59
2022/05/11 16:20:36;;;;;;;9.35;2.08;;;;;;;30.17;26.91;100045.84;4164643;28;20092;-59
2022/05/11 16:22:40;;;;;;;4.50;2.20;;;;;;;30.27;26.95;100045.06;4165016;28;20067;-59
2022/05/11 16:24:43;;;;;;;7.13;2.72;;;;;;;30.32;26.12;100051.91;4148899;28;20041;-59
2022/05/11 16:26:47;;;;;;;10.40;3.03;;;;;;;30.20;26.16;100042.94;4161861;28;20099;-60
2022/05/11 16:28:50;;;;;;;6.90;2.83;;;;;;;29.98;26.82;100035.63;4157459;28;20338;-60
2022/05/11 16:30:54;;;;;;;4.85;2.13;;;;;;;29.78;27.28;100045.97;4162647;28;20129;-60
2022/05/11 16:32:57;;;;;;;6.45;2.33;;;;;;;29.55;27.45;100042.28;4165682;28;20049;-60
2022/05/11 16:35:00;;;;;;;8.13;3.20;;;;;;;29.43;27.72;100044.03;4165745;28;20092;-60
2022/05/11 16:37:03;;;;;;;7.10;2.45;;;;;;;29.20;27.62;100048.31;4156077;28;20037;-60
2022/05/11 16:39:12;;;;;;;4.20;2.38;;;;;;;29.03;28.01;100052.16;4164903;28;20159;-59
2022/05/11 16:41:18;;;;;;;8.35;3.33;;;;;;;29.01;28.66;100051.41;4165486;28;20073;-60
2022/05/11 16:43:21;;;;;;;7.28;2.95;;;;;;;28.81;28.42;100047.44;4154241;28;20061;-59
2022/05/11 16:45:24;;;;;;;10.50;2.97;;;;;;;28.71;28.78;100041.88;4148445;28;20128;-60
2022/05/11 16:47:27;;;;;;;6.18;2.92;;;;;;;28.60;29.06;100049.75;4149584;28;20046;-60
2022/05/11 16:49:30;;;;;;;6.75;2.75;;;;;;;28.56;29.53;100047.28;4155657;28;20069;-59
2022/05/11 16:51:33;;;;;;;7.97;3.03;;;;;;;28.59;30.03;100048.03;4166622;28;20038;-59
2022/05/11 16:53:36;;;;;;;13.10;3.58;;;;;;;28.55;29.71;100050.91;4162312;28;20120;-58
2022/05/11 16:55:40;;;;;;;8.77;2.55;;;;;;;28.48;29.52;100052.28;4159021;28;20046;-59
2022/05/11 16:57:43;;;;;;;13.70;3.05;;;;;;;28.37;29.48;100052.13;4155933;28;20091;-59
2022/05/11 16:59:46;;;;;;;7.25;3.08;;;;;;;28.27;29.88;100057.25;4158678;28;20091;-59
2022/05/11 17:01:49;;;;;;;6.80;2.30;;;;;;;28.29;30.51;100049.97;4155398;28;20580;-60
2022/05/11 17:03:52;;;;;;;5.65;2.47;;;;;;;28.24;30.34;100045.91;4154383;28;20035;-58
2022/05/11 17:05:56;;;;;;;8.38;3.00;;;;;;;28.21;30.44;100045.16;4155973;28;20044;-59
2022/05/11 17:07:59;;;;;;;8.90;3.40;;;;;;;28.17;30.93;100053.47;4162131;28;20041;-59
2022/05/11 17:10:03;;;;;;;9.25;3.25;;;;;;;28.13;30.92;100041.28;4156875;28;20037;-59
2022/05/11 17:12:13;;;;;;;11.75;3.22;;;;;;;28.10;30.82;100038.81;4165767;28;20034;-59